| time (UTC) | temp F | wind direction | speed knots | gust knots | rain 1hr in | rain 24hr in | rain mn in | humidity % | barometer mb |
| 20260508001543 | 76 | 216 | 0.0 | 1.7 | 0.00 | 0.00 | 0.00 | 58 | 1013.4 |
| 20260508000036 | 76 | 0 | 0.0 | 2.6 | 0.00 | 0.00 | 0.00 | 58 | 1013.5 |
| 20260507234535 | 75 | 229 | 0.9 | 4.3 | 0.00 | 0.00 | 0.00 | 59 | 1013.5 |
| 20260507233035 | 76 | 217 | 0.0 | 1.7 | 0.00 | 0.00 | 0.00 | 57 | 1013.6 |
| 20260507231542 | 75 | 217 | 1.7 | 3.5 | 0.00 | 0.00 | 0.00 | 58 | 1013.6 |
| 20260507230042 | 75 | 243 | 0.9 | 5.2 | 0.00 | 0.00 | 0.00 | 60 | 1013.7 |
| 20260507224540 | 75 | 262 | 1.7 | 6.1 | 0.00 | 0.00 | 0.00 | 59 | 1013.8 |
| 20260507223039 | 76 | 257 | 1.7 | 7.8 | 0.00 | 0.00 | 0.00 | 57 | 1013.9 |
| 20260507221542 | 77 | 252 | 1.7 | 5.2 | 0.00 | 0.00 | 0.00 | 56 | 1014.0 |
| 20260507220035 | 77 | 149 | 1.7 | 5.2 | 0.00 | 0.00 | 0.00 | 55 | 1014.2 |
| 20260507214537 | 77 | 224 | 0.9 | 4.3 | 0.00 | 0.00 | 0.00 | 55 | 1014.3 |
| 20260507213037 | 76 | 221 | 0.9 | 5.2 | 0.00 | 0.00 | 0.00 | 56 | 1014.4 |
| 20260507211542 | 77 | 245 | 0.9 | 9.6 | 0.00 | 0.00 | 0.00 | 55 | 1014.4 |
| 20260507210043 | 77 | 262 | 1.7 | 7.0 | 0.00 | 0.00 | 0.00 | 53 | 1014.5 |
| 20260507204538 | 77 | 108 | 1.7 | 3.5 | 0.00 | 0.00 | 0.00 | 55 | 1014.6 |
| 20260507203104 | 77 | 248 | 0.9 | 5.2 | 0.00 | 0.00 | 0.00 | 54 | 1014.8 |
| 20260507201537 | 77 | 166 | 0.9 | 3.5 | 0.00 | 0.00 | 0.00 | 55 | 1014.9 |
| 20260507200035 | 76 | 150 | 0.9 | 6.1 | 0.00 | 0.00 | 0.00 | 55 | 1015.2 |
| 20260507194540 | 76 | 244 | 0.9 | 4.3 | 0.00 | 0.00 | 0.00 | 55 | 1015.3 |
| 20260507193040 | 75 | 310 | 0.9 | 5.2 | 0.00 | 0.00 | 0.00 | 58 | 1015.5 |
| 20260507191539 | 73 | 295 | 1.7 | 7.8 | 0.00 | 0.00 | 0.00 | 62 | 1015.7 |
| 20260507190034 | 74 | 245 | 1.7 | 4.3 | 0.00 | 0.00 | 0.00 | 61 | 1015.6 |
| 20260507184537 | 74 | 229 | 1.7 | 4.3 | 0.00 | 0.00 | 0.00 | 61 | 1015.9 |
| 20260507183036 | 76 | 0 | 0.0 | 1.7 | 0.00 | 0.00 | 0.00 | 59 | 1016.0 |
| 20260507181532 | 74 | 179 | 0.9 | 3.5 | 0.00 | 0.00 | 0.00 | 61 | 1015.9 |
| 20260507180041 | 73 | 250 | 2.6 | 5.2 | 0.00 | 0.00 | 0.00 | 63 | 1015.9 |
| 20260507174541 | 74 | 231 | 0.0 | 3.5 | 0.00 | 0.00 | 0.00 | 63 | 1015.9 |
| 20260507173053 | 73 | 231 | 0.9 | 3.5 | 0.00 | 0.00 | 0.00 | 63 | 1016.0 |
| 20260507171541 | 71 | 0 | 0.9 | 3.5 | 0.00 | 0.00 | 0.00 | 63 | 1016.0 |
| 20260507170039 | 70 | 0 | 0.0 | 4.3 | 0.00 | 0.00 | 0.00 | 66 | 1016.0 |
| 20260507164537 | 70 | 302 | 1.7 | 3.5 | 0.00 | 0.00 | 0.00 | 65 | 1016.0 |
| 20260507163040 | 69 | 0 | 0.0 | 1.7 | 0.00 | 0.00 | 0.00 | 67 | 1016.2 |
| 20260507161545 | 68 | 0 | 0.0 | 0.0 | 0.00 | 0.00 | 0.00 | 69 | 1016.3 |
| 20260507160038 | 67 | 0 | 0.0 | 1.7 | 0.00 | 0.00 | 0.00 | 72 | 1016.3 |
| 20260507154537 | 66 | 51 | 0.0 | 1.7 | 0.00 | 0.00 | 0.00 | 74 | 1016.6 |
| 20260507153035 | 65 | 0 | 0.0 | 0.0 | 0.00 | 0.00 | 0.00 | 76 | 1016.4 |
| 20260507151536 | 65 | 0 | 0.0 | 1.7 | 0.00 | 0.00 | 0.00 | 77 | 1016.7 |
| 20260507150041 | 63 | 0 | 0.0 | 1.7 | 0.00 | 0.00 | 0.00 | 80 | 1016.7 |
| 20260507144537 | 62 | 0 | 0.0 | 0.0 | 0.00 | 0.00 | 0.00 | 83 | 1016.5 |
| 20260507143045 | 61 | 0 | 0.0 | 0.0 | 0.00 | 0.00 | 0.00 | 84 | 1016.3 |
| 20260507141548 | 60 | 0 | 0.0 | 1.7 | 0.00 | 0.00 | 0.00 | 85 | 1016.2 |
| 20260507140036 | 60 | 0 | 0.0 | 0.0 | 0.00 | 0.00 | 0.00 | 86 | 1016.0 |
| 20260507134539 | 59 | 0 | 0.0 | 0.0 | 0.00 | 0.00 | 0.00 | 89 | 1015.8 |
| 20260507133107 | 56 | 0 | 0.0 | 0.0 | 0.00 | 0.00 | 0.00 | 92 | 1015.7 |
| 20260507131543 | 55 | 0 | 0.0 | 0.0 | 0.00 | 0.00 | 0.00 | 93 | 1015.7 |
| 20260507130045 | 55 | 0 | 0.0 | 0.0 | 0.00 | 0.00 | 0.00 | 93 | 1015.6 |
| 20260507124536 | 55 | 0 | 0.0 | 0.0 | 0.00 | 0.00 | 0.00 | 93 | 1015.6 |
| 20260507123040 | 55 | 0 | 0.0 | 0.0 | 0.00 | 0.00 | 0.00 | 91 | 1015.6 |
| 20260507121534 | 56 | 0 | 0.0 | 0.0 | 0.00 | 0.00 | 0.00 | 92 | 1015.5 |
| 20260507120039 | 55 | 0 | 0.0 | 0.0 | 0.00 | 0.00 | 0.00 | 92 | 1015.6 |
| 20260507114542 | 56 | 0 | 0.0 | 0.0 | 0.00 | 0.00 | 0.00 | 91 | 1015.7 |
| 20260507113038 | 56 | 0 | 0.0 | 0.0 | 0.00 | 0.00 | 0.00 | 91 | 1015.7 |
| 20260507111537 | 56 | 0 | 0.0 | 0.0 | 0.00 | 0.00 | 0.00 | 90 | 1015.7 |
| 20260507110042 | 57 | 0 | 0.0 | 0.0 | 0.00 | 0.00 | 0.00 | 89 | 1015.8 |
| 20260507104534 | 57 | 0 | 0.0 | 0.0 | 0.00 | 0.00 | 0.00 | 90 | 1015.8 |
| 20260507103039 | 57 | 0 | 0.0 | 0.0 | 0.00 | 0.00 | 0.00 | 89 | 1016.0 |
| 20260507101538 | 57 | 0 | 0.0 | 0.0 | 0.00 | 0.00 | 0.00 | 88 | 1016.0 |
| 20260507100037 | 58 | 0 | 0.0 | 0.0 | 0.00 | 0.00 | 0.00 | 88 | 1016.1 |
| 20260507094547 | 58 | 0 | 0.0 | 0.0 | 0.00 | 0.00 | 0.00 | 88 | 1016.1 |
| 20260507093037 | 58 | 0 | 0.0 | 0.0 | 0.00 | 0.00 | 0.00 | 88 | 1016.3 |
| 20260507091538 | 58 | 0 | 0.0 | 0.0 | 0.00 | 0.00 | 0.00 | 87 | 1016.6 |
| 20260507090037 | 58 | 0 | 0.0 | 0.0 | 0.00 | 0.00 | 0.00 | 86 | 1016.6 |
| 20260507084539 | 59 | 0 | 0.0 | 0.0 | 0.00 | 0.00 | 0.00 | 85 | 1016.8 |
| 20260507083038 | 59 | 0 | 0.0 | 0.0 | 0.00 | 0.00 | 0.00 | 85 | 1016.8 |
| 20260507081539 | 60 | 0 | 0.0 | 0.0 | 0.00 | 0.00 | 0.00 | 83 | 1017.0 |
| 20260507080041 | 60 | 0 | 0.0 | 3.5 | 0.00 | 0.00 | 0.00 | 83 | 1017.0 |
| 20260507074542 | 60 | 278 | 0.9 | 3.5 | 0.00 | 0.00 | 0.00 | 82 | 1017.0 |
| 20260507073043 | 60 | 314 | 0.9 | 2.6 | 0.00 | 0.00 | 0.00 | 82 | 1017.1 |
| 20260507071539 | 60 | 0 | 0.0 | 1.7 | 0.00 | 0.00 | 0.00 | 81 | 1017.2 |
| 20260507070045 | 61 | 0 | 0.0 | 0.0 | 0.00 | 0.00 | 0.00 | 82 | 1017.2 |
| 20260507064545 | 61 | 0 | 0.0 | 0.0 | 0.00 | 0.00 | 0.00 | 81 | 1017.3 |
| 20260507063037 | 61 | 0 | 0.0 | 0.0 | 0.00 | 0.00 | 0.00 | 79 | 1017.4 |
| 20260507061532 | 61 | 0 | 0.0 | 1.7 | 0.00 | 0.00 | 0.00 | 78 | 1017.3 |
| 20260507060033 | 62 | 313 | 0.0 | 2.6 | 0.00 | 0.00 | 0.00 | 77 | 1017.3 |
| 20260507054538 | 62 | 319 | 0.0 | 2.6 | 0.00 | 0.00 | 0.00 | 77 | 1017.3 |
| 20260507053037 | 62 | 333 | 0.9 | 2.6 | 0.00 | 0.00 | 0.00 | 76 | 1017.3 |
| 20260507051537 | 62 | 316 | 1.7 | 3.5 | 0.00 | 0.00 | 0.00 | 76 | 1017.3 |
| 20260507050037 | 62 | 0 | 0.9 | 2.6 | 0.00 | 0.00 | 0.00 | 75 | 1017.3 |
| 20260507044532 | 63 | 0 | 0.0 | 3.5 | 0.00 | 0.00 | 0.00 | 74 | 1017.2 |
| 20260507043035 | 63 | 0 | 1.7 | 5.2 | 0.00 | 0.00 | 0.00 | 72 | 1017.2 |
| 20260507041535 | 64 | 243 | 0.9 | 4.3 | 0.00 | 0.00 | 0.00 | 70 | 1017.0 |
| 20260507040042 | 64 | 278 | 1.7 | 5.2 | 0.00 | 0.00 | 0.00 | 69 | 1016.8 |
| 20260507034542 | 64 | 266 | 3.5 | 6.1 | 0.00 | 0.00 | 0.00 | 68 | 1016.7 |
| 20260507033045 | 65 | 283 | 0.9 | 6.1 | 0.00 | 0.00 | 0.00 | 68 | 1016.5 |
| 20260507031551 | 65 | 254 | 1.7 | 7.0 | 0.00 | 0.00 | 0.00 | 66 | 1016.3 |
| 20260507030047 | 66 | 263 | 4.3 | 7.0 | 0.00 | 0.00 | 0.00 | 64 | 1016.2 |
| 20260507024559 | 67 | 0 | 2.6 | 5.2 | 0.00 | 0.00 | 0.00 | 64 | 1016.0 |
| 20260507023037 | 67 | 259 | 2.6 | 7.0 | 0.00 | 0.00 | 0.00 | 61 | 1015.7 |
| 20260507021540 | 69 | 321 | 3.5 | 7.8 | 0.00 | 0.00 | 0.00 | 58 | 1015.6 |
| 20260507020036 | 70 | 283 | 4.3 | 7.0 | 0.00 | 0.00 | 0.00 | 58 | 1015.5 |
| 20260507014547 | 72 | 253 | 2.6 | 5.2 | 0.00 | 0.00 | 0.00 | 59 | 1015.4 |
| 20260507013040 | 72 | 240 | 0.0 | 2.6 | 0.00 | 0.00 | 0.00 | 61 | 1015.3 |
| 20260507011544 | 72 | 0 | 0.0 | 4.3 | 0.00 | 0.00 | 0.00 | 59 | 1015.2 |
| 20260507010041 | 72 | 231 | 0.9 | 7.8 | 0.00 | 0.00 | 0.00 | 59 | 1015.1 |
| 20260507004536 | 72 | 236 | 0.9 | 7.0 | 0.00 | 0.00 | 0.00 | 59 | 1015.1 |
| 20260507003039 | 74 | 240 | 0.9 | 3.5 | 0.00 | 0.00 | 0.00 | 52 | 1015.1 |